sensor_id;sensor_type;location;lat;lon;timestamp;pressure;altitude;pressure_sealevel;temperature;humidity
42003;BME280;27693;50.506;30.832;2023-06-22T00:00:08;100013.92;;;21.37;68.83
42003;BME280;27693;50.506;30.832;2023-06-22T00:01:13;100012.25;;;21.36;68.82
42003;BME280;27693;50.506;30.832;2023-06-22T00:02:16;100006.95;;;21.36;69.25
42003;BME280;27693;50.506;30.832;2023-06-22T00:03:20;100003.63;;;21.34;69.03
42003;BME280;27693;50.506;30.832;2023-06-22T00:04:22;100013.64;;;21.30;69.46
42003;BME280;27693;50.506;30.832;2023-06-22T00:05:24;100016.67;;;21.26;70.01
42003;BME280;27693;50.506;30.832;2023-06-22T00:06:27;100014.99;;;21.25;69.81
42003;BME280;27693;50.506;30.832;2023-06-22T00:07:29;100017.89;;;21.21;69.72
42003;BME280;27693;50.506;30.832;2023-06-22T00:08:32;100010.81;;;21.22;69.77
42003;BME280;27693;50.506;30.832;2023-06-22T00:09:34;100009.84;;;21.23;70.40
42003;BME280;27693;50.506;30.832;2023-06-22T00:10:36;100013.31;;;21.23;69.87
42003;BME280;27693;50.506;30.832;2023-06-22T00:11:38;100014.85;;;21.26;70.32
42003;BME280;27693;50.506;30.832;2023-06-22T00:12:41;100021.69;;;21.29;69.92
42003;BME280;27693;50.506;30.832;2023-06-22T00:13:44;100012.78;;;21.30;70.11
42003;BME280;27693;50.506;30.832;2023-06-22T00:14:47;100023.11;;;21.33;69.65
42003;BME280;27693;50.506;30.832;2023-06-22T00:15:49;100015.86;;;21.35;70.39
42003;BME280;27693;50.506;30.832;2023-06-22T00:16:52;100013.10;;;21.36;70.10
42003;BME280;27693;50.506;30.832;2023-06-22T00:18:00;100015.61;;;21.38;69.88
42003;BME280;27693;50.506;30.832;2023-06-22T00:19:02;100010.06;;;21.41;70.12
42003;BME280;27693;50.506;30.832;2023-06-22T00:20:08;100015.07;;;21.44;70.17
42003;BME280;27693;50.506;30.832;2023-06-22T00:21:12;100014.81;;;21.47;70.04
42003;BME280;27693;50.506;30.832;2023-06-22T00:22:14;100014.93;;;21.46;69.90
42003;BME280;27693;50.506;30.832;2023-06-22T00:23:22;100020.11;;;21.47;69.80
42003;BME280;27693;50.506;30.832;2023-06-22T00:24:25;100015.39;;;21.51;69.85
42003;BME280;27693;50.506;30.832;2023-06-22T00:25:27;100012.45;;;21.54;69.85
42003;BME280;27693;50.506;30.832;2023-06-22T00:26:31;100015.81;;;21.56;69.03
42003;BME280;27693;50.506;30.832;2023-06-22T00:27:35;100017.38;;;21.59;69.01
42003;BME280;27693;50.506;30.832;2023-06-22T00:28:37;100020.75;;;21.61;69.29
42003;BME280;27693;50.506;30.832;2023-06-22T00:29:40;100016.27;;;21.61;68.90
42003;BME280;27693;50.506;30.832;2023-06-22T00:30:43;100025.19;;;21.60;68.64
42003;BME280;27693;50.506;30.832;2023-06-22T00:31:45;100021.00;;;21.58;68.37
42003;BME280;27693;50.506;30.832;2023-06-22T00:32:50;100026.30;;;21.58;68.56
42003;BME280;27693;50.506;30.832;2023-06-22T00:33:52;100019.31;;;21.57;68.72
42003;BME280;27693;50.506;30.832;2023-06-22T00:34:54;100019.58;;;21.53;68.23
42003;BME280;27693;50.506;30.832;2023-06-22T00:35:58;100023.05;;;21.54;68.27
42003;BME280;27693;50.506;30.832;2023-06-22T00:37:00;100019.00;;;21.50;68.30
42003;BME280;27693;50.506;30.832;2023-06-22T00:38:03;100026.80;;;21.51;68.46
42003;BME280;27693;50.506;30.832;2023-06-22T00:39:07;100022.47;;;21.50;68.29
42003;BME280;27693;50.506;30.832;2023-06-22T00:40:11;100023.44;;;21.49;68.57
42003;BME280;27693;50.506;30.832;2023-06-22T00:41:14;100025.12;;;21.50;68.53
42003;BME280;27693;50.506;30.832;2023-06-22T00:42:17;100023.58;;;21.48;68.09
42003;BME280;27693;50.506;30.832;2023-06-22T00:43:20;100020.36;;;21.44;68.05
42003;BME280;27693;50.506;30.832;2023-06-22T00:44:22;100019.54;;;21.44;67.39
42003;BME280;27693;50.506;30.832;2023-06-22T00:45:26;100019.79;;;21.41;67.60
42003;BME280;27693;50.506;30.832;2023-06-22T00:46:29;100019.22;;;21.37;68.03
42003;BME280;27693;50.506;30.832;2023-06-22T00:47:33;100024.52;;;21.37;67.84
42003;BME280;27693;50.506;30.832;2023-06-22T00:48:36;100022.40;;;21.31;67.02
42003;BME280;27693;50.506;30.832;2023-06-22T00:49:39;100024.22;;;21.30;66.37
42003;BME280;27693;50.506;30.832;2023-06-22T00:50:41;100026.58;;;21.33;66.59
42003;BME280;27693;50.506;30.832;2023-06-22T00:51:44;100025.48;;;21.36;66.78
42003;BME280;27693;50.506;30.832;2023-06-22T00:52:52;100016.72;;;21.35;66.61
42003;BME280;27693;50.506;30.832;2023-06-22T00:53:55;100024.80;;;21.34;66.99
42003;BME280;27693;50.506;30.832;2023-06-22T00:54:57;100022.01;;;21.35;67.38
42003;BME280;27693;50.506;30.832;2023-06-22T00:56:03;100027.30;;;21.35;66.39
42003;BME280;27693;50.506;30.832;2023-06-22T00:57:09;100021.15;;;21.35;67.28
42003;BME280;27693;50.506;30.832;2023-06-22T00:58:13;100025.05;;;21.31;66.47
42003;BME280;27693;50.506;30.832;2023-06-22T00:59:16;100033.70;;;21.33;66.93
42003;BME280;27693;50.506;30.832;2023-06-22T01:00:21;100033.13;;;21.29;66.27
42003;BME280;27693;50.506;30.832;2023-06-22T01:01:26;100034.19;;;21.17;64.97
42003;BME280;27693;50.506;30.832;2023-06-22T01:02:30;100031.92;;;21.12;65.94
42003;BME280;27693;50.506;30.832;2023-06-22T01:03:33;100026.64;;;21.12;66.17
42003;BME280;27693;50.506;30.832;2023-06-22T01:04:39;100029.00;;;21.15;66.62
42003;BME280;27693;50.506;30.832;2023-06-22T01:05:42;100028.56;;;21.10;66.20
42003;BME280;27693;50.506;30.832;2023-06-22T01:06:54;100029.34;;;21.01;66.26
42003;BME280;27693;50.506;30.832;2023-06-22T01:08:14;100029.34;;;21.01;66.26
42003;BME280;27693;50.506;30.832;2023-06-22T01:09:29;100021.81;;;20.96;66.58
42003;BME280;27693;50.506;30.832;2023-06-22T01:11:55;100031.54;;;20.96;66.25
42003;BME280;27693;50.506;30.832;2023-06-22T01:13:07;100033.80;;;21.00;66.47
42003;BME280;27693;50.506;30.832;2023-06-22T01:14:18;100031.88;;;21.02;66.59
42003;BME280;27693;50.506;30.832;2023-06-22T01:15:31;100029.23;;;21.02;66.87
42003;BME280;27693;50.506;30.832;2023-06-22T01:16:35;100037.55;;;20.98;67.04
42003;BME280;27693;50.506;30.832;2023-06-22T01:17:41;100030.37;;;20.88;67.81
42003;BME280;27693;50.506;30.832;2023-06-22T01:18:47;100035.95;;;20.85;67.83
42003;BME280;27693;50.506;30.832;2023-06-22T01:19:55;100038.70;;;20.84;67.84
42003;BME280;27693;50.506;30.832;2023-06-22T01:21:00;100035.61;;;20.79;68.30
42003;BME280;27693;50.506;30.832;2023-06-22T01:22:05;100035.61;;;20.79;68.50
42003;BME280;27693;50.506;30.832;2023-06-22T01:24:45;100029.73;;;20.75;69.03
42003;BME280;27693;50.506;30.832;2023-06-22T01:28:46;100030.87;;;20.61;69.25
42003;BME280;27693;50.506;30.832;2023-06-22T01:29:51;100036.02;;;20.63;69.30
42003;BME280;27693;50.506;30.832;2023-06-22T01:30:55;100038.22;;;20.57;69.54
42003;BME280;27693;50.506;30.832;2023-06-22T01:32:00;100037.12;;;20.60;69.34
42003;BME280;27693;50.506;30.832;2023-06-22T01:33:10;100033.52;;;20.61;69.42
42003;BME280;27693;50.506;30.832;2023-06-22T01:34:13;100034.61;;;20.58;69.26
42003;BME280;27693;50.506;30.832;2023-06-22T01:35:17;100034.85;;;20.55;69.25
42003;BME280;27693;50.506;30.832;2023-06-22T01:36:22;100034.61;;;20.58;69.56
42003;BME280;27693;50.506;30.832;2023-06-22T01:37:26;100036.02;;;20.63;69.39
42003;BME280;27693;50.506;30.832;2023-06-22T01:38:29;100035.64;;;20.67;69.35
42003;BME280;27693;50.506;30.832;2023-06-22T01:39:33;100034.69;;;20.68;69.48
42003;BME280;27693;50.506;30.832;2023-06-22T01:40:37;100032.14;;;20.67;69.15
42003;BME280;27693;50.506;30.832;2023-06-22T01:41:41;100037.94;;;20.72;69.23
42003;BME280;27693;50.506;30.832;2023-06-22T01:42:45;100045.13;;;20.70;69.37
42003;BME280;27693;50.506;30.832;2023-06-22T01:43:48;100041.31;;;20.63;69.36
42003;BME280;27693;50.506;30.832;2023-06-22T01:44:53;100043.23;;;20.61;69.39
42003;BME280;27693;50.506;30.832;2023-06-22T01:45:57;100042.41;;;20.60;69.64
42003;BME280;27693;50.506;30.832;2023-06-22T01:47:00;100050.47;;;20.58;69.51
42003;BME280;27693;50.506;30.832;2023-06-22T01:48:04;100046.89;;;20.48;70.04
42003;BME280;27693;50.506;30.832;2023-06-22T01:49:08;100046.89;;;20.48;70.04
42003;BME280;27693;50.506;30.832;2023-06-22T01:50:12;100049.81;;;20.45;70.14
42003;BME280;27693;50.506;30.832;2023-06-22T01:51:15;100042.70;;;20.46;70.21
42003;BME280;27693;50.506;30.832;2023-06-22T01:52:18;100041.48;;;20.50;70.45
42003;BME280;27693;50.506;30.832;2023-06-22T01:53:24;100043.74;;;20.54;70.58
42003;BME280;27693;50.506;30.832;2023-06-22T01:54:27;100043.23;;;20.61;70.38
42003;BME280;27693;50.506;30.832;2023-06-22T01:55:29;100043.81;;;20.64;70.02
42003;BME280;27693;50.506;30.832;2023-06-22T01:56:32;100040.80;;;20.69;69.36
42003;BME280;27693;50.506;30.832;2023-06-22T01:57:35;100034.06;;;20.76;69.61
42003;BME280;27693;50.506;30.832;2023-06-22T01:58:41;100034.06;;;20.76;69.61
42003;BME280;27693;50.506;30.832;2023-06-22T02:01:06;100043.67;;;20.77;69.88
42003;BME280;27693;50.506;30.832;2023-06-22T02:02:10;100043.40;;;20.80;70.60
42003;BME280;27693;50.506;30.832;2023-06-22T02:03:18;100036.05;;;20.84;70.39
42003;BME280;27693;50.506;30.832;2023-06-22T02:04:24;100041.34;;;20.84;69.92
42003;BME280;27693;50.506;30.832;2023-06-22T02:05:28;100041.17;;;20.76;69.96
42003;BME280;27693;50.506;30.832;2023-06-22T02:06:36;100038.62;;;20.74;70.08
42003;BME280;27693;50.506;30.832;2023-06-22T02:08:05;100033.59;;;20.71;69.89
42003;BME280;27693;50.506;30.832;2023-06-22T02:08:49;100034.41;;;20.71;70.46
42003;BME280;27693;50.506;30.832;2023-06-22T02:09:53;100035.30;;;20.72;71.05
42003;BME280;27693;50.506;30.832;2023-06-22T02:10:57;100041.41;;;20.72;71.08
42003;BME280;27693;50.506;30.832;2023-06-22T02:12:04;100041.75;;;20.79;71.11
42003;BME280;27693;50.506;30.832;2023-06-22T02:13:08;100034.50;;;20.81;70.98
42003;BME280;27693;50.506;30.832;2023-06-22T02:14:12;100034.98;;;20.86;71.03
42003;BME280;27693;50.506;30.832;2023-06-22T02:15:16;100031.42;;;20.76;71.33
42003;BME280;27693;50.506;30.832;2023-06-22T02:16:21;100028.19;;;20.72;71.51
42003;BME280;27693;50.506;30.832;2023-06-22T02:17:26;100034.34;;;20.73;71.73
42003;BME280;27693;50.506;30.832;2023-06-22T02:18:28;100033.09;;;20.77;71.69
42003;BME280;27693;50.506;30.832;2023-06-22T02:19:31;100037.63;;;20.86;71.70
42003;BME280;27693;50.506;30.832;2023-06-22T02:20:37;100039.27;;;20.87;71.34
42003;BME280;27693;50.506;30.832;2023-06-22T02:21:39;100036.83;;;20.96;71.48
42003;BME280;27693;50.506;30.832;2023-06-22T02:22:42;100043.55;;;21.00;71.01
42003;BME280;27693;50.506;30.832;2023-06-22T02:23:46;100034.19;;;20.96;70.98
42003;BME280;27693;50.506;30.832;2023-06-22T02:24:49;100039.47;;;20.96;71.29
42003;BME280;27693;50.506;30.832;2023-06-22T02:25:51;100042.91;;;20.86;71.03
42003;BME280;27693;50.506;30.832;2023-06-22T02:26:53;100034.20;;;20.63;72.38
42003;BME280;27693;50.506;30.832;2023-06-22T02:27:56;100035.88;;;20.43;72.79
42003;BME280;27693;50.506;30.832;2023-06-22T02:28:58;100038.65;;;20.41;73.52
42003;BME280;27693;50.506;30.832;2023-06-22T02:30:01;100036.11;;;20.40;73.68
42003;BME280;27693;50.506;30.832;2023-06-22T02:31:04;100039.26;;;20.34;73.65
42003;BME280;27693;50.506;30.832;2023-06-22T02:32:07;100036.30;;;20.27;73.68
42003;BME280;27693;50.506;30.832;2023-06-22T02:33:09;100043.41;;;20.15;74.61
42003;BME280;27693;50.506;30.832;2023-06-22T02:34:12;100044.59;;;20.22;74.64
42003;BME280;27693;50.506;30.832;2023-06-22T02:35:17;100040.13;;;20.23;74.30
42003;BME280;27693;50.506;30.832;2023-06-22T02:36:20;100042.19;;;20.19;74.30
42003;BME280;27693;50.506;30.832;2023-06-22T02:37:25;100043.28;;;20.17;74.09
42003;BME280;27693;50.506;30.832;2023-06-22T02:38:31;100044.13;;;20.17;74.36
42003;BME280;27693;50.506;30.832;2023-06-22T02:39:38;100044.00;;;20.19;74.00
42003;BME280;27693;50.506;30.832;2023-06-22T02:40:42;100039.31;;;20.22;73.65
42003;BME280;27693;50.506;30.832;2023-06-22T02:41:45;100033.76;;;20.25;73.07
42003;BME280;27693;50.506;30.832;2023-06-22T02:42:47;100035.92;;;20.32;73.14
42003;BME280;27693;50.506;30.832;2023-06-22T02:43:50;100040.22;;;20.33;72.58
42003;BME280;27693;50.506;30.832;2023-06-22T02:44:54;100036.46;;;20.47;72.50
42003;BME280;27693;50.506;30.832;2023-06-22T02:45:58;100040.94;;;20.35;72.70
42003;BME280;27693;50.506;30.832;2023-06-22T02:47:01;100047.64;;;20.39;73.15
42003;BME280;27693;50.506;30.832;2023-06-22T02:48:04;100036.75;;;20.32;72.84
42003;BME280;27693;50.506;30.832;2023-06-22T02:49:07;100041.95;;;20.22;73.39
42003;BME280;27693;50.506;30.832;2023-06-22T02:50:10;100042.19;;;20.19;73.66
42003;BME280;27693;50.506;30.832;2023-06-22T02:51:12;100035.27;;;20.07;74.21
42003;BME280;27693;50.506;30.832;2023-06-22T02:52:14;100041.86;;;20.13;74.60
42003;BME280;27693;50.506;30.832;2023-06-22T02:53:17;100040.99;;;20.23;74.33
42003;BME280;27693;50.506;30.832;2023-06-22T02:54:20;100038.80;;;20.29;74.06
42003;BME280;27693;50.506;30.832;2023-06-22T02:55:25;100037.80;;;20.41;73.92
42003;BME280;27693;50.506;30.832;2023-06-22T02:56:30;100045.13;;;20.37;73.35
42003;BME280;27693;50.506;30.832;2023-06-22T02:57:35;100037.07;;;20.39;73.44
42003;BME280;27693;50.506;30.832;2023-06-22T02:58:37;100036.16;;;20.29;73.66
42003;BME280;27693;50.506;30.832;2023-06-22T02:59:42;100039.90;;;20.26;73.85
42003;BME280;27693;50.506;30.832;2023-06-22T03:00:46;100040.70;;;20.38;73.90
42003;BME280;27693;50.506;30.832;2023-06-22T03:01:48;100042.25;;;20.40;73.28
42003;BME280;27693;50.506;30.832;2023-06-22T03:02:52;100040.89;;;20.46;73.32
42003;BME280;27693;50.506;30.832;2023-06-22T03:03:55;100034.03;;;20.55;72.81
42003;BME280;27693;50.506;30.832;2023-06-22T03:04:58;100034.03;;;20.55;72.81
42003;BME280;27693;50.506;30.832;2023-06-22T03:06:04;100042.41;;;20.60;73.03
42003;BME280;27693;50.506;30.832;2023-06-22T03:07:06;100036.74;;;20.65;72.98
42003;BME280;27693;50.506;30.832;2023-06-22T03:08:10;100035.44;;;20.59;73.32
42003;BME280;27693;50.506;30.832;2023-06-22T03:09:13;100038.32;;;20.56;73.74
42003;BME280;27693;50.506;30.832;2023-06-22T03:10:15;100045.05;;;20.60;73.72
42003;BME280;27693;50.506;30.832;2023-06-22T03:11:18;100046.14;;;20.57;73.73
42003;BME280;27693;50.506;30.832;2023-06-22T03:12:20;100038.80;;;20.61;73.92
42003;BME280;27693;50.506;30.832;2023-06-22T03:13:27;100042.13;;;20.63;73.84
42003;BME280;27693;50.506;30.832;2023-06-22T03:14:30;100052.47;;;20.66;73.49
42003;BME280;27693;50.506;30.832;2023-06-22T03:15:32;100046.59;;;20.63;73.36
42003;BME280;27693;50.506;30.832;2023-06-22T03:16:35;100048.28;;;20.64;73.60
42003;BME280;27693;50.506;30.832;2023-06-22T03:17:39;100048.00;;;20.67;73.50
42003;BME280;27693;50.506;30.832;2023-06-22T03:18:43;100049.95;;;20.65;73.67
42003;BME280;27693;50.506;30.832;2023-06-22T03:19:47;100051.30;;;20.59;73.75
42003;BME280;27693;50.506;30.832;2023-06-22T03:20:49;100055.25;;;20.65;73.73
42003;BME280;27693;50.506;30.832;2023-06-22T03:21:53;100052.84;;;20.73;73.71
42003;BME280;27693;50.506;30.832;2023-06-22T03:22:55;100051.02;;;20.73;73.56
42003;BME280;27693;50.506;30.832;2023-06-22T03:23:58;100050.95;;;20.85;73.71
42003;BME280;27693;50.506;30.832;2023-06-22T03:25:00;100052.50;;;20.87;73.08
42003;BME280;27693;50.506;30.832;2023-06-22T03:26:03;100052.64;;;20.86;72.61
42003;BME280;27693;50.506;30.832;2023-06-22T03:27:06;100044.32;;;20.90;72.73
42003;BME280;27693;50.506;30.832;2023-06-22T03:28:09;100048.95;;;20.98;72.52
42003;BME280;27693;50.506;30.832;2023-06-22T03:29:11;100048.32;;;21.06;72.31
42003;BME280;27693;50.506;30.832;2023-06-22T03:30:14;100054.77;;;21.13;72.04
42003;BME280;27693;50.506;30.832;2023-06-22T03:31:17;100046.74;;;21.25;72.00
42003;BME280;27693;50.506;30.832;2023-06-22T03:32:21;100050.97;;;21.37;71.81
42003;BME280;27693;50.506;30.832;2023-06-22T03:33:24;100051.55;;;21.41;71.33
42003;BME280;27693;50.506;30.832;2023-06-22T03:34:27;100050.48;;;21.53;71.04
42003;BME280;27693;50.506;30.832;2023-06-22T03:35:29;100041.92;;;21.61;71.21
42003;BME280;27693;50.506;30.832;2023-06-22T03:36:32;100053.66;;;21.68;70.40
42003;BME280;27693;50.506;30.832;2023-06-22T03:37:36;100053.66;;;21.68;70.40
42003;BME280;27693;50.506;30.832;2023-06-22T03:38:40;100051.08;;;21.57;70.79
42003;BME280;27693;50.506;30.832;2023-06-22T03:39:44;100049.90;;;21.70;70.91
42003;BME280;27693;50.506;30.832;2023-06-22T03:40:48;100051.69;;;21.70;71.20
42003;BME280;27693;50.506;30.832;2023-06-22T03:41:53;100040.02;;;21.73;71.29
42003;BME280;27693;50.506;30.832;2023-06-22T03:42:55;100053.14;;;21.84;71.26
42003;BME280;27693;50.506;30.832;2023-06-22T03:44:00;100050.49;;;21.84;71.33
42003;BME280;27693;50.506;30.832;2023-06-22T03:45:03;100051.48;;;21.93;71.33
42003;BME280;27693;50.506;30.832;2023-06-22T03:46:07;100051.91;;;21.98;71.04
42003;BME280;27693;50.506;30.832;2023-06-22T03:47:10;100049.26;;;21.98;71.05
42003;BME280;27693;50.506;30.832;2023-06-22T03:48:13;100048.45;;;22.07;71.18
42003;BME280;27693;50.506;30.832;2023-06-22T03:49:15;100043.42;;;22.14;71.05
42003;BME280;27693;50.506;30.832;2023-06-22T03:50:18;100048.70;;;22.04;70.62
42003;BME280;27693;50.506;30.832;2023-06-22T03:51:22;100043.98;;;22.08;70.65
42003;BME280;27693;50.506;30.832;2023-06-22T03:52:25;100050.41;;;22.15;70.10
42003;BME280;27693;50.506;30.832;2023-06-22T03:53:27;100046.23;;;22.22;70.03
42003;BME280;27693;50.506;30.832;2023-06-22T03:54:31;100046.23;;;22.32;69.45
42003;BME280;27693;50.506;30.832;2023-06-22T03:55:34;100054.22;;;22.42;69.09
42003;BME280;27693;50.506;30.832;2023-06-22T03:56:37;100051.05;;;22.48;69.12
42003;BME280;27693;50.506;30.832;2023-06-22T03:57:40;100044.63;;;22.51;69.03
42003;BME280;27693;50.506;30.832;2023-06-22T03:58:43;100044.63;;;22.51;68.83
42003;BME280;27693;50.506;30.832;2023-06-22T03:59:47;100048.24;;;22.49;68.54
42003;BME280;27693;50.506;30.832;2023-06-22T04:00:51;100051.05;;;22.48;68.37
42003;BME280;27693;50.506;30.832;2023-06-22T04:01:53;100043.20;;;22.46;68.42
42003;BME280;27693;50.506;30.832;2023-06-22T04:02:57;100051.30;;;22.45;68.37
42003;BME280;27693;50.506;30.832;2023-06-22T04:04:01;100054.10;;;22.43;68.29
42003;BME280;27693;50.506;30.832;2023-06-22T04:05:04;100052.42;;;22.42;68.07
42003;BME280;27693;50.506;30.832;2023-06-22T04:06:08;100052.42;;;22.42;68.55
42003;BME280;27693;50.506;30.832;2023-06-22T04:07:11;100053.66;;;22.38;68.43
42003;BME280;27693;50.506;30.832;2023-06-22T04:08:14;100052.95;;;22.36;68.70
42003;BME280;27693;50.506;30.832;2023-06-22T04:09:17;100055.72;;;22.34;68.33
42003;BME280;27693;50.506;30.832;2023-06-22T04:10:26;100054.89;;;22.34;69.07
42003;BME280;27693;50.506;30.832;2023-06-22T04:11:29;100061.16;;;22.33;69.87
42003;BME280;27693;50.506;30.832;2023-06-22T04:12:32;100055.19;;;22.31;69.85
42003;BME280;27693;50.506;30.832;2023-06-22T04:13:35;100062.43;;;22.29;70.33
42003;BME280;27693;50.506;30.832;2023-06-22T04:14:37;100067.73;;;22.29;70.12
42003;BME280;27693;50.506;30.832;2023-06-22T04:15:40;100066.47;;;22.33;69.74
42003;BME280;27693;50.506;30.832;2023-06-22T04:16:43;100066.47;;;22.33;69.74
42003;BME280;27693;50.506;30.832;2023-06-22T04:17:45;100068.86;;;22.36;70.40
42003;BME280;27693;50.506;30.832;2023-06-22T04:18:47;100074.75;;;22.40;70.57
42003;BME280;27693;50.506;30.832;2023-06-22T04:19:51;100074.34;;;22.44;70.72
42003;BME280;27693;50.506;30.832;2023-06-22T04:20:54;100073.90;;;22.49;70.96
42003;BME280;27693;50.506;30.832;2023-06-22T04:21:56;100072.52;;;22.55;71.15
42003;BME280;27693;50.506;30.832;2023-06-22T04:22:58;100071.95;;;22.61;71.23
42003;BME280;27693;50.506;30.832;2023-06-22T04:24:01;100081.17;;;22.67;71.12
42003;BME280;27693;50.506;30.832;2023-06-22T04:25:06;100070.83;;;22.63;71.03
42003;BME280;27693;50.506;30.832;2023-06-22T04:26:09;100077.66;;;22.66;71.19
42003;BME280;27693;50.506;30.832;2023-06-22T04:27:12;100074.59;;;22.71;70.67
42003;BME280;27693;50.506;30.832;2023-06-22T04:28:14;100077.54;;;22.77;70.45
42003;BME280;27693;50.506;30.832;2023-06-22T04:29:17;100077.68;;;22.86;69.62
42003;BME280;27693;50.506;30.832;2023-06-22T04:30:20;100077.78;;;22.94;69.52
42003;BME280;27693;50.506;30.832;2023-06-22T04:31:22;100082.52;;;23.00;69.38
42003;BME280;27693;50.506;30.832;2023-06-22T04:32:26;100078.62;;;23.04;69.09
42003;BME280;27693;50.506;30.832;2023-06-22T04:33:29;100080.30;;;23.05;68.82
42003;BME280;27693;50.506;30.832;2023-06-22T04:34:31;100086.42;;;23.06;68.71
42003;BME280;27693;50.506;30.832;2023-06-22T04:35:34;100090.91;;;23.05;68.65
42003;BME280;27693;50.506;30.832;2023-06-22T04:36:40;100081.98;;;23.06;68.54
42003;BME280;27693;50.506;30.832;2023-06-22T04:37:43;100083.63;;;23.07;68.40
42003;BME280;27693;50.506;30.832;2023-06-22T04:38:45;100088.93;;;23.07;68.25
42003;BME280;27693;50.506;30.832;2023-06-22T04:39:47;100083.92;;;23.04;68.73
42003;BME280;27693;50.506;30.832;2023-06-22T04:40:50;100088.26;;;23.05;68.72
42003;BME280;27693;50.506;30.832;2023-06-22T04:41:53;100089.23;;;23.04;68.64
42003;BME280;27693;50.506;30.832;2023-06-22T04:42:57;100085.61;;;23.05;68.36
42003;BME280;27693;50.506;30.832;2023-06-22T04:43:59;100089.23;;;23.04;68.56
42003;BME280;27693;50.506;30.832;2023-06-22T04:45:03;100086.73;;;23.03;68.73
42003;BME280;27693;50.506;30.832;2023-06-22T04:46:07;100093.69;;;23.04;68.62
42003;BME280;27693;50.506;30.832;2023-06-22T04:47:09;100091.18;;;23.02;68.08
42003;BME280;27693;50.506;30.832;2023-06-22T04:48:12;100096.48;;;23.02;70.70
42003;BME280;27693;50.506;30.832;2023-06-22T04:49:16;100098.44;;;23.00;70.72
42003;BME280;27693;50.506;30.832;2023-06-22T04:50:19;100098.44;;;23.00;70.42
42003;BME280;27693;50.506;30.832;2023-06-22T04:51:22;100094.81;;;23.01;70.74
42003;BME280;27693;50.506;30.832;2023-06-22T04:52:27;100088.37;;;23.04;71.26
42003;BME280;27693;50.506;30.832;2023-06-22T04:53:31;100100.09;;;23.11;72.24
42003;BME280;27693;50.506;30.832;2023-06-22T04:54:34;100099.83;;;23.14;72.64
42003;BME280;27693;50.506;30.832;2023-06-22T04:55:39;100098.46;;;23.20;73.40
42003;BME280;27693;50.506;30.832;2023-06-22T04:56:43;100097.89;;;23.26;73.63
42003;BME280;27693;50.506;30.832;2023-06-22T04:57:48;100097.31;;;23.32;73.64
42003;BME280;27693;50.506;30.832;2023-06-22T04:58:51;100093.09;;;23.39;73.49
42003;BME280;27693;50.506;30.832;2023-06-22T04:59:54;100096.15;;;23.44;73.21
42003;BME280;27693;50.506;30.832;2023-06-22T05:00:56;100104.23;;;23.53;72.78
42003;BME280;27693;50.506;30.832;2023-06-22T05:02:00;100102.24;;;23.55;71.91
42003;BME280;27693;50.506;30.832;2023-06-22T05:03:02;100107.98;;;23.60;72.32
42003;BME280;27693;50.506;30.832;2023-06-22T05:04:07;100102.08;;;23.66;72.51
42003;BME280;27693;50.506;30.832;2023-06-22T05:05:11;100110.16;;;23.74;72.36
42003;BME280;27693;50.506;30.832;2023-06-22T05:06:24;100103.23;;;23.91;71.98
42003;BME280;27693;50.506;30.832;2023-06-22T05:07:26;100103.41;;;23.80;71.55
42003;BME280;27693;50.506;30.832;2023-06-22T05:08:29;100110.70;;;23.78;71.47
42003;BME280;27693;50.506;30.832;2023-06-22T05:09:32;100111.81;;;23.75;70.80
42003;BME280;27693;50.506;30.832;2023-06-22T05:10:35;100111.53;;;23.79;71.51
42003;BME280;27693;50.506;30.832;2023-06-22T05:11:40;100106.61;;;23.84;72.25
42003;BME280;27693;50.506;30.832;2023-06-22T05:12:43;100098.73;;;23.92;72.22
42003;BME280;27693;50.506;30.832;2023-06-22T05:13:45;100103.80;;;23.95;71.94
42003;BME280;27693;50.506;30.832;2023-06-22T05:14:48;100107.98;;;23.98;71.38
42003;BME280;27693;50.506;30.832;2023-06-22T05:15:50;100113.52;;;24.04;71.60
42003;BME280;27693;50.506;30.832;2023-06-22T05:16:53;100109.61;;;24.08;71.10
42003;BME280;27693;50.506;30.832;2023-06-22T05:17:56;100108.02;;;24.16;70.99
42003;BME280;27693;50.506;30.832;2023-06-22T05:19:00;100105.05;;;24.19;70.50
42003;BME280;27693;50.506;30.832;2023-06-22T05:20:06;100108.09;;;24.24;69.80
42003;BME280;27693;50.506;30.832;2023-06-22T05:21:10;100104.98;;;24.29;69.48
42003;BME280;27693;50.506;30.832;2023-06-22T05:22:12;100108.34;;;24.31;69.23
42003;BME280;27693;50.506;30.832;2023-06-22T05:23:16;100103.84;;;24.31;68.86
42003;BME280;27693;50.506;30.832;2023-06-22T05:24:19;100104.83;;;24.30;68.44
42003;BME280;27693;50.506;30.832;2023-06-22T05:25:22;100102.17;;;24.30;68.25
42003;BME280;27693;50.506;30.832;2023-06-22T05:26:24;100103.62;;;24.24;67.84
42003;BME280;27693;50.506;30.832;2023-06-22T05:27:26;100108.09;;;24.24;67.97
42003;BME280;27693;50.506;30.832;2023-06-22T05:28:28;100103.09;;;24.21;68.39
42003;BME280;27693;50.506;30.832;2023-06-22T05:29:31;100107.02;;;24.17;68.31
42003;BME280;27693;50.506;30.832;2023-06-22T05:30:33;100104.52;;;24.15;68.50
42003;BME280;27693;50.506;30.832;2023-06-22T05:31:36;100109.00;;;24.15;68.55
42003;BME280;27693;50.506;30.832;2023-06-22T05:32:38;100100.34;;;24.13;69.42
42003;BME280;27693;50.506;30.832;2023-06-22T05:33:42;100096.44;;;24.07;70.19
42003;BME280;27693;50.506;30.832;2023-06-22T05:34:45;100102.08;;;24.04;69.69
42003;BME280;27693;50.506;30.832;2023-06-22T05:35:48;100100.39;;;24.03;69.89